sensor_id;sensor_type;location;lat;lon;timestamp;pressure;altitude;pressure_sealevel;temperature;humidity
39363;BME280;25088;43.238;23.110;2023-03-02T00:00:40;97019.47;;;5.29;100.00
39363;BME280;25088;43.238;23.110;2023-03-02T00:03:08;97010.06;;;5.31;100.00
39363;BME280;25088;43.238;23.110;2023-03-02T00:05:35;97009.47;;;5.23;100.00
39363;BME280;25088;43.238;23.110;2023-03-02T00:08:02;97004.03;;;5.29;100.00
39363;BME280;25088;43.238;23.110;2023-03-02T00:10:28;96999.88;;;5.20;100.00
39363;BME280;25088;43.238;23.110;2023-03-02T00:12:54;97010.50;;;5.28;100.00
39363;BME280;25088;43.238;23.110;2023-03-02T00:15:20;97005.94;;;5.29;100.00
39363;BME280;25088;43.238;23.110;2023-03-02T00:17:45;96988.84;;;5.22;100.00
39363;BME280;25088;43.238;23.110;2023-03-02T00:20:11;96993.44;;;5.28;100.00
39363;BME280;25088;43.238;23.110;2023-03-02T00:22:38;97002.97;;;5.37;100.00
39363;BME280;25088;43.238;23.110;2023-03-02T00:25:04;96981.38;;;5.24;100.00
39363;BME280;25088;43.238;23.110;2023-03-02T00:27:30;96969.91;;;5.15;100.00
39363;BME280;25088;43.238;23.110;2023-03-02T00:29:56;96995.91;;;5.36;100.00
39363;BME280;25088;43.238;23.110;2023-03-02T00:32:22;96985.94;;;5.30;100.00
39363;BME280;25088;43.238;23.110;2023-03-02T00:34:48;97000.28;;;5.37;100.00
39363;BME280;25088;43.238;23.110;2023-03-02T00:37:14;96995.50;;;5.39;100.00
39363;BME280;25088;43.238;23.110;2023-03-02T00:39:40;96993.00;;;5.37;100.00
39363;BME280;25088;43.238;23.110;2023-03-02T00:42:05;96986.13;;;5.35;100.00
39363;BME280;25088;43.238;23.110;2023-03-02T00:44:31;96981.97;;;5.32;100.00
39363;BME280;25088;43.238;23.110;2023-03-02T00:46:56;96976.53;;;5.39;100.00
39363;BME280;25088;43.238;23.110;2023-03-02T00:49:22;96979.84;;;5.41;100.00
39363;BME280;25088;43.238;23.110;2023-03-02T00:51:47;96973.00;;;5.38;100.00
39363;BME280;25088;43.238;23.110;2023-03-02T00:54:13;96966.31;;;5.41;100.00
39363;BME280;25088;43.238;23.110;2023-03-02T00:56:39;96965.72;;;5.39;100.00
39363;BME280;25088;43.238;23.110;2023-03-02T00:59:05;96967.19;;;5.35;100.00
39363;BME280;25088;43.238;23.110;2023-03-02T01:01:31;96934.09;;;5.19;100.00
39363;BME280;25088;43.238;23.110;2023-03-02T01:03:57;96959.06;;;5.35;100.00
39363;BME280;25088;43.238;23.110;2023-03-02T01:06:22;96950.09;;;5.34;100.00
39363;BME280;25088;43.238;23.110;2023-03-02T01:08:48;96960.94;;;5.34;100.00
39363;BME280;25088;43.238;23.110;2023-03-02T01:11:18;96957.81;;;5.31;100.00
39363;BME280;25088;43.238;23.110;2023-03-02T01:13:44;96957.19;;;5.29;100.00
39363;BME280;25088;43.238;23.110;2023-03-02T01:16:10;96945.53;;;5.28;100.00
39363;BME280;25088;43.238;23.110;2023-03-02T01:18:36;96941.97;;;5.34;100.00
39363;BME280;25088;43.238;23.110;2023-03-02T01:21:13;96954.25;;;5.43;100.00
39363;BME280;25088;43.238;23.110;2023-03-02T01:23:39;96946.72;;;5.45;100.00
39363;BME280;25088;43.238;23.110;2023-03-02T01:26:05;96947.56;;;5.46;100.00
39363;BME280;25088;43.238;23.110;2023-03-02T01:28:30;96922.81;;;5.36;100.00
39363;BME280;25088;43.238;23.110;2023-03-02T01:30:56;96950.47;;;5.51;100.00
39363;BME280;25088;43.238;23.110;2023-03-02T01:33:21;96934.66;;;5.41;100.00
39363;BME280;25088;43.238;23.110;2023-03-02T01:35:47;96937.81;;;5.38;100.00
39363;BME280;25088;43.238;23.110;2023-03-02T01:38:13;96941.13;;;5.40;100.00
39363;BME280;25088;43.238;23.110;2023-03-02T01:40:39;96941.94;;;5.41;100.00
39363;BME280;25088;43.238;23.110;2023-03-02T01:43:14;96943.41;;;5.43;100.00
39363;BME280;25088;43.238;23.110;2023-03-02T01:45:45;96941.56;;;5.37;100.00
39363;BME280;25088;43.238;23.110;2023-03-02T01:48:13;96931.56;;;5.31;100.00
39363;BME280;25088;43.238;23.110;2023-03-02T01:50:40;96940.91;;;5.42;100.00
39363;BME280;25088;43.238;23.110;2023-03-02T01:53:06;96941.13;;;5.47;100.00
39363;BME280;25088;43.238;23.110;2023-03-02T01:55:32;96941.50;;;5.51;100.00
39363;BME280;25088;43.238;23.110;2023-03-02T01:57:59;96918.84;;;5.38;100.00
39363;BME280;25088;43.238;23.110;2023-03-02T02:00:28;96918.84;;;5.38;100.00
39363;BME280;25088;43.238;23.110;2023-03-02T02:02:58;96932.13;;;5.47;100.00
39363;BME280;25088;43.238;23.110;2023-03-02T02:05:35;96937.16;;;5.43;100.00
39363;BME280;25088;43.238;23.110;2023-03-02T02:08:02;96935.47;;;5.42;100.00
39363;BME280;25088;43.238;23.110;2023-03-02T02:10:30;96938.00;;;5.43;100.00
39363;BME280;25088;43.238;23.110;2023-03-02T02:12:56;96927.16;;;5.37;100.00
39363;BME280;25088;43.238;23.110;2023-03-02T02:15:21;96921.16;;;5.35;100.00
39363;BME280;25088;43.238;23.110;2023-03-02T02:17:47;96926.53;;;5.48;100.00
39363;BME280;25088;43.238;23.110;2023-03-02T02:20:36;96926.94;;;5.45;100.00
39363;BME280;25088;43.238;23.110;2023-03-02T02:29:11;96925.66;;;5.54;100.00
39363;BME280;25088;43.238;23.110;2023-03-02T02:31:56;96926.72;;;5.53;100.00
39363;BME280;25088;43.238;23.110;2023-03-02T02:36:58;96922.34;;;5.52;100.00
39363;BME280;25088;43.238;23.110;2023-03-02T02:39:27;96923.38;;;5.51;100.00
39363;BME280;25088;43.238;23.110;2023-03-02T02:41:57;96910.47;;;5.47;100.00
39363;BME280;25088;43.238;23.110;2023-03-02T02:44:23;96918.59;;;5.53;100.00
39363;BME280;25088;43.238;23.110;2023-03-02T02:46:49;96905.06;;;5.47;100.00
39363;BME280;25088;43.238;23.110;2023-03-02T02:49:30;96920.66;;;5.51;100.00
39363;BME280;25088;43.238;23.110;2023-03-02T02:51:58;96925.50;;;5.36;100.00
39363;BME280;25088;43.238;23.110;2023-03-02T02:54:23;96923.25;;;5.33;100.00
39363;BME280;25088;43.238;23.110;2023-03-02T02:56:50;96918.88;;;5.25;100.00
39363;BME280;25088;43.238;23.110;2023-03-02T02:59:20;96921.81;;;5.24;100.00
39363;BME280;25088;43.238;23.110;2023-03-02T03:01:48;96912.22;;;5.21;100.00
39363;BME280;25088;43.238;23.110;2023-03-02T03:04:18;96934.69;;;5.35;100.00
39363;BME280;25088;43.238;23.110;2023-03-02T03:07:01;96931.94;;;5.41;100.00
39363;BME280;25088;43.238;23.110;2023-03-02T03:09:28;96902.66;;;5.18;100.00
39363;BME280;25088;43.238;23.110;2023-03-02T03:12:03;96904.09;;;5.21;100.00
39363;BME280;25088;43.238;23.110;2023-03-02T03:14:38;96927.16;;;5.37;100.00
39363;BME280;25088;43.238;23.110;2023-03-02T03:17:05;96936.34;;;5.36;100.00
39363;BME280;25088;43.238;23.110;2023-03-02T03:19:37;96928.22;;;5.42;100.00
39363;BME280;25088;43.238;23.110;2023-03-02T03:22:03;96928.41;;;5.41;100.00
39363;BME280;25088;43.238;23.110;2023-03-02T03:24:30;96933.81;;;5.41;100.00
39363;BME280;25088;43.238;23.110;2023-03-02T03:26:57;96944.47;;;5.36;100.00
39363;BME280;25088;43.238;23.110;2023-03-02T03:29:24;96936.13;;;5.44;100.00
39363;BME280;25088;43.238;23.110;2023-03-02T03:31:51;96935.47;;;5.42;100.00
39363;BME280;25088;43.238;23.110;2023-03-02T03:34:18;96923.63;;;5.43;100.00
39363;BME280;25088;43.238;23.110;2023-03-02T03:36:44;96933.81;;;5.48;100.00
39363;BME280;25088;43.238;23.110;2023-03-02T03:39:11;96930.47;;;5.45;100.00
39363;BME280;25088;43.238;23.110;2023-03-02T03:41:36;96928.44;;;5.34;100.00
39363;BME280;25088;43.238;23.110;2023-03-02T03:44:03;96933.63;;;5.42;100.00
39363;BME280;25088;43.238;23.110;2023-03-02T03:46:28;96938.19;;;5.42;100.00
39363;BME280;25088;43.238;23.110;2023-03-02T03:48:54;96934.69;;;5.35;100.00
39363;BME280;25088;43.238;23.110;2023-03-02T03:51:20;96933.63;;;5.36;100.00
39363;BME280;25088;43.238;23.110;2023-03-02T03:53:46;96929.69;;;5.38;100.00
39363;BME280;25088;43.238;23.110;2023-03-02T03:56:27;96929.03;;;5.43;100.00
39363;BME280;25088;43.238;23.110;2023-03-02T03:58:53;96934.25;;;5.44;100.00
39363;BME280;25088;43.238;23.110;2023-03-02T04:01:32;96936.16;;;5.37;100.00
39363;BME280;25088;43.238;23.110;2023-03-02T04:03:59;96938.63;;;5.39;100.00
39363;BME280;25088;43.238;23.110;2023-03-02T04:06:25;96935.28;;;5.43;100.00
39363;BME280;25088;43.238;23.110;2023-03-02T04:08:50;96913.44;;;5.32;100.00
39363;BME280;25088;43.238;23.110;2023-03-02T04:11:16;96933.00;;;5.40;100.00
39363;BME280;25088;43.238;23.110;2023-03-02T04:13:41;96930.53;;;5.32;100.00
39363;BME280;25088;43.238;23.110;2023-03-02T04:16:07;96923.06;;;5.28;100.00
39363;BME280;25088;43.238;23.110;2023-03-02T04:18:32;96925.53;;;5.29;100.00
39363;BME280;25088;43.238;23.110;2023-03-02T04:20:58;96925.09;;;5.39;100.00
39363;BME280;25088;43.238;23.110;2023-03-02T04:23:23;96916.59;;;5.29;100.00
39363;BME280;25088;43.238;23.110;2023-03-02T04:25:48;96904.09;;;5.21;100.00
39363;BME280;25088;43.238;23.110;2023-03-02T04:28:14;96919.28;;;5.35;100.00
39363;BME280;25088;43.238;23.110;2023-03-02T04:30:41;96908.88;;;5.26;100.00
39363;BME280;25088;43.238;23.110;2023-03-02T04:33:07;96919.06;;;5.30;100.00
39363;BME280;25088;43.238;23.110;2023-03-02T04:35:32;96912.66;;;5.25;100.00
39363;BME280;25088;43.238;23.110;2023-03-02T04:37:58;96893.31;;;5.14;100.00
39363;BME280;25088;43.238;23.110;2023-03-02T04:40:24;96920.13;;;5.29;100.00
39363;BME280;25088;43.238;23.110;2023-03-02T04:42:49;96845.72;;;4.87;100.00
39363;BME280;25088;43.238;23.110;2023-03-02T04:45:15;96919.03;;;5.37;100.00
39363;BME280;25088;43.238;23.110;2023-03-02T04:47:40;96925.50;;;5.42;100.00
39363;BME280;25088;43.238;23.110;2023-03-02T04:50:08;96914.06;;;5.34;100.00
39363;BME280;25088;43.238;23.110;2023-03-02T04:52:34;96929.44;;;5.47;100.00
39363;BME280;25088;43.238;23.110;2023-03-02T04:55:00;96929.00;;;5.50;100.00
39363;BME280;25088;43.238;23.110;2023-03-02T04:57:25;96929.44;;;5.53;100.00
39363;BME280;25088;43.238;23.110;2023-03-02T04:59:51;96929.66;;;5.45;100.00
39363;BME280;25088;43.238;23.110;2023-03-02T05:02:16;96933.19;;;5.45;100.00
39363;BME280;25088;43.238;23.110;2023-03-02T05:04:42;96931.31;;;5.53;100.00
39363;BME280;25088;43.238;23.110;2023-03-02T05:07:07;96936.91;;;5.51;100.00
39363;BME280;25088;43.238;23.110;2023-03-02T05:09:33;96929.44;;;5.47;100.00
39363;BME280;25088;43.238;23.110;2023-03-02T05:11:59;96933.41;;;5.44;100.00
39363;BME280;25088;43.238;23.110;2023-03-02T05:14:25;96939.69;;;5.38;100.00
39363;BME280;25088;43.238;23.110;2023-03-02T05:16:52;96935.91;;;5.45;100.00
39363;BME280;25088;43.238;23.110;2023-03-02T05:19:18;96941.31;;;5.45;100.00
39363;BME280;25088;43.238;23.110;2023-03-02T05:21:43;96929.25;;;5.41;100.00
39363;BME280;25088;43.238;23.110;2023-03-02T05:24:10;96932.59;;;5.37;100.00
39363;BME280;25088;43.238;23.110;2023-03-02T05:26:35;96936.56;;;5.34;100.00
39363;BME280;25088;43.238;23.110;2023-03-02T05:29:02;96939.31;;;5.28;100.00
39363;BME280;25088;43.238;23.110;2023-03-02T05:31:34;96927.19;;;5.30;100.00
39363;BME280;25088;43.238;23.110;2023-03-02T05:34:02;96948.41;;;5.40;100.00
39363;BME280;25088;43.238;23.110;2023-03-02T05:36:27;96944.47;;;5.42;100.00
39363;BME280;25088;43.238;23.110;2023-03-02T05:38:53;96936.19;;;5.76;100.00
39363;BME280;25088;43.238;23.110;2023-03-02T05:41:18;96924.72;;;5.87;100.00
39363;BME280;25088;43.238;23.110;2023-03-02T05:43:44;96911.41;;;5.79;100.00
39363;BME280;25088;43.238;23.110;2023-03-02T05:46:10;96932.19;;;5.91;100.00
39363;BME280;25088;43.238;23.110;2023-03-02T05:48:35;96909.97;;;5.69;100.00
39363;BME280;25088;43.238;23.110;2023-03-02T05:51:01;96940.56;;;5.77;100.00
39363;BME280;25088;43.238;23.110;2023-03-02T05:53:26;96929.75;;;5.70;100.00
39363;BME280;25088;43.238;23.110;2023-03-02T05:55:53;96949.13;;;5.74;100.00
39363;BME280;25088;43.238;23.110;2023-03-02T05:58:19;96944.97;;;5.71;100.00
39363;BME280;25088;43.238;23.110;2023-03-02T06:00:45;96921.50;;;5.52;100.00
39363;BME280;25088;43.238;23.110;2023-03-02T06:03:11;96943.34;;;5.63;100.00
39363;BME280;25088;43.238;23.110;2023-03-02T06:05:37;96944.19;;;5.64;100.00
39363;BME280;25088;43.238;23.110;2023-03-02T06:08:03;96935.25;;;5.50;100.00
39363;BME280;25088;43.238;23.110;2023-03-02T06:10:28;96951.09;;;5.53;100.00
39363;BME280;25088;43.238;23.110;2023-03-02T06:12:55;96941.69;;;5.56;100.00
39363;BME280;25088;43.238;23.110;2023-03-02T06:15:20;96948.97;;;5.62;100.00
39363;BME280;25088;43.238;23.110;2023-03-02T06:17:46;96945.59;;;5.66;100.00
39363;BME280;25088;43.238;23.110;2023-03-02T06:20:12;96952.25;;;5.70;100.00
39363;BME280;25088;43.238;23.110;2023-03-02T06:22:39;96960.81;;;5.74;100.00
39363;BME280;25088;43.238;23.110;2023-03-02T06:25:11;96961.63;;;5.75;100.00
39363;BME280;25088;43.238;23.110;2023-03-02T06:27:38;96944.81;;;5.59;100.00
39363;BME280;25088;43.238;23.110;2023-03-02T06:30:05;96957.06;;;5.68;100.00
39363;BME280;25088;43.238;23.110;2023-03-02T06:32:31;96956.44;;;5.73;100.00
39363;BME280;25088;43.238;23.110;2023-03-02T06:35:02;96963.28;;;5.76;100.00
39363;BME280;25088;43.238;23.110;2023-03-02T06:37:28;96963.09;;;5.77;100.00
39363;BME280;25088;43.238;23.110;2023-03-02T06:39:54;96971.22;;;5.77;100.00
39363;BME280;25088;43.238;23.110;2023-03-02T06:42:20;96963.28;;;5.76;100.00
39363;BME280;25088;43.238;23.110;2023-03-02T06:44:46;96969.94;;;5.80;100.00
39363;BME280;25088;43.238;23.110;2023-03-02T06:47:12;96968.09;;;5.74;100.00
39363;BME280;25088;43.238;23.110;2023-03-02T06:49:38;96961.66;;;5.68;100.00
39363;BME280;25088;43.238;23.110;2023-03-02T06:52:03;96963.53;;;5.67;100.00
39363;BME280;25088;43.238;23.110;2023-03-02T06:54:31;96966.00;;;5.76;100.00
39363;BME280;25088;43.238;23.110;2023-03-02T06:56:57;96958.25;;;5.86;100.00
39363;BME280;25088;43.238;23.110;2023-03-02T06:59:22;96954.06;;;5.90;100.00
39363;BME280;25088;43.238;23.110;2023-03-02T07:01:48;96958.44;;;5.91;100.00
39363;BME280;25088;43.238;23.110;2023-03-02T07:04:15;96963.13;;;6.15;100.00
39363;BME280;25088;43.238;23.110;2023-03-02T07:06:40;96954.41;;;6.13;100.00
39363;BME280;25088;43.238;23.110;2023-03-02T07:09:06;96956.63;;;6.23;100.00
39363;BME280;25088;43.238;23.110;2023-03-02T07:11:31;96949.25;;;6.37;100.00
39363;BME280;25088;43.238;23.110;2023-03-02T07:13:59;96953.34;;;6.46;100.00
39363;BME280;25088;43.238;23.110;2023-03-02T07:16:24;96953.56;;;6.44;100.00
39363;BME280;25088;43.238;23.110;2023-03-02T07:18:50;96958.75;;;6.46;100.00
39363;BME280;25088;43.238;23.110;2023-03-02T07:21:15;96954.31;;;6.58;100.00
39363;BME280;25088;43.238;23.110;2023-03-02T07:23:41;96953.25;;;6.59;100.00
39363;BME280;25088;43.238;23.110;2023-03-02T07:26:06;96960.28;;;6.42;100.00
39363;BME280;25088;43.238;23.110;2023-03-02T07:28:34;96966.50;;;6.11;100.00
39363;BME280;25088;43.238;23.110;2023-03-02T07:31:00;96973.66;;;5.99;100.00
39363;BME280;25088;43.238;23.110;2023-03-02T07:33:25;96956.28;;;6.06;100.00
39363;BME280;25088;43.238;23.110;2023-03-02T07:35:51;96947.91;;;6.14;100.00
39363;BME280;25088;43.238;23.110;2023-03-02T07:38:16;96958.88;;;6.33;100.00
39363;BME280;25088;43.238;23.110;2023-03-02T07:40:43;96958.88;;;6.26;100.00
39363;BME280;25088;43.238;23.110;2023-03-02T07:43:09;96964.88;;;6.03;100.00
39363;BME280;25088;43.238;23.110;2023-03-02T07:45:36;96956.09;;;6.08;100.00
39363;BME280;25088;43.238;23.110;2023-03-02T07:48:02;96956.69;;;6.10;100.00
39363;BME280;25088;43.238;23.110;2023-03-02T07:50:28;96957.97;;;6.07;100.00
39363;BME280;25088;43.238;23.110;2023-03-02T07:52:53;96928.00;;;6.02;100.00
39363;BME280;25088;43.238;23.110;2023-03-02T07:55:19;96953.03;;;6.29;100.00
39363;BME280;25088;43.238;23.110;2023-03-02T07:57:44;96956.34;;;6.31;100.00
39363;BME280;25088;43.238;23.110;2023-03-02T08:00:10;96959.06;;;6.31;100.00
39363;BME280;25088;43.238;23.110;2023-03-02T08:02:36;96917.31;;;6.07;100.00
39363;BME280;25088;43.238;23.110;2023-03-02T08:05:01;96961.53;;;6.39;100.00
39363;BME280;25088;43.238;23.110;2023-03-02T08:07:28;96951.31;;;6.03;100.00
39363;BME280;25088;43.238;23.110;2023-03-02T08:09:53;96956.69;;;6.10;100.00
39363;BME280;25088;43.238;23.110;2023-03-02T08:12:19;96938.84;;;5.89;100.00
39363;BME280;25088;43.238;23.110;2023-03-02T08:14:46;96967.41;;;5.91;100.00
39363;BME280;25088;43.238;23.110;2023-03-02T08:17:11;96962.88;;;5.79;100.00
39363;BME280;25088;43.238;23.110;2023-03-02T08:19:37;96960.34;;;5.84;100.00
39363;BME280;25088;43.238;23.110;2023-03-02T08:22:03;96945.75;;;5.85;100.00
39363;BME280;25088;43.238;23.110;2023-03-02T08:24:28;96955.75;;;5.98;100.00
39363;BME280;25088;43.238;23.110;2023-03-02T08:26:54;96958.63;;;6.03;100.00
39363;BME280;25088;43.238;23.110;2023-03-02T08:29:20;96951.16;;;5.98;100.00
39363;BME280;25088;43.238;23.110;2023-03-02T08:31:45;96956.94;;;6.08;100.00
39363;BME280;25088;43.238;23.110;2023-03-02T08:34:11;96961.16;;;5.98;100.00
39363;BME280;25088;43.238;23.110;2023-03-02T08:36:37;96939.03;;;6.01;100.00
39363;BME280;25088;43.238;23.110;2023-03-02T08:39:03;96958.16;;;6.12;100.00
39363;BME280;25088;43.238;23.110;2023-03-02T08:41:29;96944.44;;;6.07;100.00
39363;BME280;25088;43.238;23.110;2023-03-02T08:43:54;96959.94;;;6.25;100.00
39363;BME280;25088;43.238;23.110;2023-03-02T08:46:20;96951.75;;;6.38;100.00
39363;BME280;25088;43.238;23.110;2023-03-02T08:48:46;96950.75;;;6.26;100.00
39363;BME280;25088;43.238;23.110;2023-03-02T08:51:15;96953.44;;;6.33;100.00
39363;BME280;25088;43.238;23.110;2023-03-02T08:53:43;96953.22;;;6.34;100.00
39363;BME280;25088;43.238;23.110;2023-03-02T08:56:30;96955.81;;;6.22;100.00
39363;BME280;25088;43.238;23.110;2023-03-02T08:59:02;96953.88;;;6.30;100.00
39363;BME280;25088;43.238;23.110;2023-03-02T09:01:30;96955.63;;;6.17;100.00
39363;BME280;25088;43.238;23.110;2023-03-02T09:03:57;96956.19;;;6.26;100.00
39363;BME280;25088;43.238;23.110;2023-03-02T09:06:28;96959.00;;;6.13;100.00
39363;BME280;25088;43.238;23.110;2023-03-02T09:08:54;96961.25;;;6.16;100.00
39363;BME280;25088;43.238;23.110;2023-03-02T09:11:20;96961.00;;;6.24;100.00
39363;BME280;25088;43.238;23.110;2023-03-02T09:13:45;96954.97;;;6.22;100.00
39363;BME280;25088;43.238;23.110;2023-03-02T09:16:12;96957.28;;;6.18;100.00
39363;BME280;25088;43.238;23.110;2023-03-02T09:18:38;96958.75;;;6.14;100.00
39363;BME280;25088;43.238;23.110;2023-03-02T09:21:04;96950.34;;;6.29;100.00
39363;BME280;25088;43.238;23.110;2023-03-02T09:23:30;96952.13;;;6.42;100.00
39363;BME280;25088;43.238;23.110;2023-03-02T09:25:55;96934.91;;;6.30;100.00
39363;BME280;25088;43.238;23.110;2023-03-02T09:28:21;96949.91;;;6.32;100.00
39363;BME280;25088;43.238;23.110;2023-03-02T09:30:49;96948.63;;;6.35;100.00
39363;BME280;25088;43.238;23.110;2023-03-02T09:33:15;96949.50;;;6.29;100.00
39363;BME280;25088;43.238;23.110;2023-03-02T09:35:40;96947.41;;;6.31;100.00
39363;BME280;25088;43.238;23.110;2023-03-02T09:38:06;96952.09;;;6.17;100.00
39363;BME280;25088;43.238;23.110;2023-03-02T09:40:32;96952.56;;;6.07;100.00
39363;BME280;25088;43.238;23.110;2023-03-02T09:46:14;96967.00;;;5.88;100.00
39363;BME280;25088;43.238;23.110;2023-03-02T09:49:14;96966.78;;;5.89;100.00
39363;BME280;25088;43.238;23.110;2023-03-02T09:55:23;96971.03;;;5.72;100.00
39363;BME280;25088;43.238;23.110;2023-03-02T09:57:51;96967.09;;;5.61;100.00
39363;BME280;25088;43.238;23.110;2023-03-02T10:00:30;96964.22;;;5.50;100.00
39363;BME280;25088;43.238;23.110;2023-03-02T10:03:01;96959.22;;;5.53;100.00
39363;BME280;25088;43.238;23.110;2023-03-02T10:05:39;96963.63;;;5.48;100.00
39363;BME280;25088;43.238;23.110;2023-03-02T10:08:11;96964.41;;;5.55;100.00
39363;BME280;25088;43.238;23.110;2023-03-02T10:11:10;96932.19;;;5.33;100.00
39363;BME280;25088;43.238;23.110;2023-03-02T10:16:27;96961.72;;;5.48;100.00
39363;BME280;25088;43.238;23.110;2023-03-02T10:19:21;96966.13;;;5.42;100.00
39363;BME280;25088;43.238;23.110;2023-03-02T10:22:29;96969.03;;;5.41;100.00
39363;BME280;25088;43.238;23.110;2023-03-02T10:27:49;96968.44;;;5.26;100.00
39363;BME280;25088;43.238;23.110;2023-03-02T10:30:20;96967.19;;;5.22;100.00
39363;BME280;25088;43.238;23.110;2023-03-02T10:32:52;96970.75;;;5.22;100.00
39363;BME280;25088;43.238;23.110;2023-03-02T10:35:21;96967.19;;;5.28;100.00
39363;BME280;25088;43.238;23.110;2023-03-02T10:37:50;96970.75;;;5.22;100.00
39363;BME280;25088;43.238;23.110;2023-03-02T10:43:00;96954.91;;;5.32;100.00
39363;BME280;25088;43.238;23.110;2023-03-02T10:45:28;96962.13;;;5.52;100.00
39363;BME280;25088;43.238;23.110;2023-03-02T10:50:29;96951.81;;;5.22;100.00
39363;BME280;25088;43.238;23.110;2023-03-02T10:52:55;96952.22;;;5.19;100.00
39363;BME280;25088;43.238;23.110;2023-03-02T10:55:20;96965.09;;;5.30;100.00
39363;BME280;25088;43.238;23.110;2023-03-02T10:58:04;96959.06;;;5.22;100.00
39363;BME280;25088;43.238;23.110;2023-03-02T11:00:32;96958.25;;;5.21;100.00
39363;BME280;25088;43.238;23.110;2023-03-02T11:08:06;96962.16;;;5.32;100.00
39363;BME280;25088;43.238;23.110;2023-03-02T11:10:36;96950.72;;;5.43;100.00
39363;BME280;25088;43.238;23.110;2023-03-02T11:13:15;96952.16;;;5.45;100.00
39363;BME280;25088;43.238;23.110;2023-03-02T11:15:46;96944.03;;;5.52;100.00
39363;BME280;25088;43.238;23.110;2023-03-02T11:20:53;96950.28;;;5.39;100.00
39363;BME280;25088;43.238;23.110;2023-03-02T11:23:50;96956.31;;;5.48;100.00
39363;BME280;25088;43.238;23.110;2023-03-02T11:26:17;96923.25;;;5.33;100.00
39363;BME280;25088;43.238;23.110;2023-03-02T11:31:27;96954.69;;;5.34;100.00
39363;BME280;25088;43.238;23.110;2023-03-02T11:36:57;96958.47;;;5.19;100.00
39363;BME280;25088;43.238;23.110;2023-03-02T11:39:30;96955.94;;;5.25;100.00
39363;BME280;25088;43.238;23.110;2023-03-02T11:42:00;96952.44;;;5.17;100.00
39363;BME280;25088;43.238;23.110;2023-03-02T11:44:26;96963.25;;;5.24;100.00
39363;BME280;25088;43.238;23.110;2023-03-02T11:46:58;96937.84;;;5.18;100.00
39363;BME280;25088;43.238;23.110;2023-03-02T11:49:44;96960.06;;;5.40;100.00
39363;BME280;25088;43.238;23.110;2023-03-02T11:52:18;96964.69;;;5.33;100.00
39363;BME280;25088;43.238;23.110;2023-03-02T11:54:49;96959.94;;;5.22;100.00
39363;BME280;25088;43.238;23.110;2023-03-02T11:57:41;96966.16;;;5.29;100.00
39363;BME280;25088;43.238;23.110;2023-03-02T12:00:32;96962.63;;;5.29;100.00
39363;BME280;25088;43.238;23.110;2023-03-02T12:03:03;96947.84;;;5.25;100.00
39363;BME280;25088;43.238;23.110;2023-03-02T12:05:32;96954.47;;;5.35;100.00
39363;BME280;25088;43.238;23.110;2023-03-02T12:08:05;96942.78;;;5.41;100.00
39363;BME280;25088;43.238;23.110;2023-03-02T12:10:42;96945.94;;;5.32;100.00
39363;BME280;25088;43.238;23.110;2023-03-02T12:15:43;96944.84;;;5.46;100.00
39363;BME280;25088;43.238;23.110;2023-03-02T12:23:24;96942.63;;;5.23;100.00
39363;BME280;25088;43.238;23.110;2023-03-02T12:26:05;96948.44;;;5.27;100.00
39363;BME280;25088;43.238;23.110;2023-03-02T12:28:37;96947.59;;;5.26;100.00
39363;BME280;25088;43.238;23.110;2023-03-02T12:31:09;96936.59;;;5.21;100.00
39363;BME280;25088;43.238;23.110;2023-03-02T12:33:46;96944.31;;;5.11;100.00
39363;BME280;25088;43.238;23.110;2023-03-02T12:36:17;96942.06;;;5.08;100.00
39363;BME280;25088;43.238;23.110;2023-03-02T12:38:51;96933.91;;;5.14;100.00
39363;BME280;25088;43.238;23.110;2023-03-02T12:41:32;96942.69;;;5.03;100.00
39363;BME280;25088;43.238;23.110;2023-03-02T12:46:52;96939.56;;;4.93;100.00
39363;BME280;25088;43.238;23.110;2023-03-02T12:49:50;96937.28;;;4.83;100.00
39363;BME280;25088;43.238;23.110;2023-03-02T12:52:27;96940.81;;;4.90;100.00
39363;BME280;25088;43.238;23.110;2023-03-02T12:54:59;96928.97;;;4.78;100.00
39363;BME280;25088;43.238;23.110;2023-03-02T12:57:25;96913.34;;;4.67;100.00
39363;BME280;25088;43.238;23.110;2023-03-02T12:59:57;96935.63;;;4.89;100.00
39363;BME280;25088;43.238;23.110;2023-03-02T13:02:26;96932.09;;;4.88;100.00
39363;BME280;25088;43.238;23.110;2023-03-02T13:07:29;96931.44;;;4.93;100.00
39363;BME280;25088;43.238;23.110;2023-03-02T13:09:58;96930.41;;;4.94;100.00
39363;BME280;25088;43.238;23.110;2023-03-02T13:12:27;96933.09;;;5.07;100.00
39363;BME280;25088;43.238;23.110;2023-03-02T13:14:56;96928.69;;;5.19;100.00
39363;BME280;25088;43.238;23.110;2023-03-02T13:17:30;96927.63;;;5.21;100.00
39363;BME280;25088;43.238;23.110;2023-03-02T13:20:00;96924.75;;;5.22;100.00
39363;BME280;25088;43.238;23.110;2023-03-02T13:22:27;96928.03;;;5.31;100.00
39363;BME280;25088;43.238;23.110;2023-03-02T13:25:00;96915.97;;;5.27;100.00
39363;BME280;25088;43.238;23.110;2023-03-02T13:27:27;96914.50;;;5.31;100.00
39363;BME280;25088;43.238;23.110;2023-03-02T13:29:53;96905.50;;;5.43;100.00
39363;BME280;25088;43.238;23.110;2023-03-02T13:32:33;96915.44;;;5.56;100.00
39363;BME280;25088;43.238;23.110;2023-03-02T13:34:59;96903.41;;;5.52;100.00
39363;BME280;25088;43.238;23.110;2023-03-02T13:37:34;96904.41;;;5.51;100.00
39363;BME280;25088;43.238;23.110;2023-03-02T13:40:03;96894.41;;;5.58;100.00
39363;BME280;25088;43.238;23.110;2023-03-02T13:42:39;96893.59;;;5.58;100.00
39363;BME280;25088;43.238;23.110;2023-03-02T13:45:28;96903.19;;;5.54;100.00
39363;BME280;25088;43.238;23.110;2023-03-02T13:47:57;96896.34;;;5.44;100.00
39363;BME280;25088;43.238;23.110;2023-03-02T13:50:26;96898.44;;;5.36;100.00